sensor_id;sensor_type;location;lat;lon;timestamp;P1;durP1;ratioP1;P2;durP2;ratioP2
7965;SDS011;4028;43.272;26.932;2024-03-06T00:00:46;10.77;;;7.40;;
7965;SDS011;4028;43.272;26.932;2024-03-06T00:03:12;9.77;;;6.80;;
7965;SDS011;4028;43.272;26.932;2024-03-06T00:05:37;17.73;;;7.80;;
7965;SDS011;4028;43.272;26.932;2024-03-06T00:08:02;12.40;;;8.17;;
7965;SDS011;4028;43.272;26.932;2024-03-06T00:10:28;9.83;;;7.83;;
7965;SDS011;4028;43.272;26.932;2024-03-06T00:12:54;17.10;;;7.57;;
7965;SDS011;4028;43.272;26.932;2024-03-06T00:15:20;8.77;;;6.87;;
7965;SDS011;4028;43.272;26.932;2024-03-06T00:17:46;9.87;;;6.70;;
7965;SDS011;4028;43.272;26.932;2024-03-06T00:20:11;13.07;;;7.63;;
7965;SDS011;4028;43.272;26.932;2024-03-06T00:22:37;10.60;;;6.30;;
7965;SDS011;4028;43.272;26.932;2024-03-06T00:25:03;10.50;;;6.83;;
7965;SDS011;4028;43.272;26.932;2024-03-06T00:27:29;15.10;;;8.10;;
7965;SDS011;4028;43.272;26.932;2024-03-06T00:29:54;11.60;;;7.80;;
7965;SDS011;4028;43.272;26.932;2024-03-06T00:32:20;11.30;;;7.80;;
7965;SDS011;4028;43.272;26.932;2024-03-06T00:34:45;12.97;;;7.70;;
7965;SDS011;4028;43.272;26.932;2024-03-06T00:37:10;12.43;;;7.57;;
7965;SDS011;4028;43.272;26.932;2024-03-06T00:39:36;12.23;;;8.00;;
7965;SDS011;4028;43.272;26.932;2024-03-06T00:42:02;10.63;;;6.90;;
7965;SDS011;4028;43.272;26.932;2024-03-06T00:44:28;10.37;;;7.10;;
7965;SDS011;4028;43.272;26.932;2024-03-06T00:46:54;13.07;;;7.23;;
7965;SDS011;4028;43.272;26.932;2024-03-06T00:49:19;10.90;;;7.07;;
7965;SDS011;4028;43.272;26.932;2024-03-06T00:51:45;11.17;;;7.20;;
7965;SDS011;4028;43.272;26.932;2024-03-06T00:54:10;10.53;;;7.00;;
7965;SDS011;4028;43.272;26.932;2024-03-06T00:56:39;10.33;;;7.07;;
7965;SDS011;4028;43.272;26.932;2024-03-06T00:59:04;13.57;;;6.00;;
7965;SDS011;4028;43.272;26.932;2024-03-06T01:01:30;8.30;;;6.60;;
7965;SDS011;4028;43.272;26.932;2024-03-06T01:03:55;10.80;;;6.33;;
7965;SDS011;4028;43.272;26.932;2024-03-06T01:06:21;9.97;;;6.47;;
7965;SDS011;4028;43.272;26.932;2024-03-06T01:08:47;9.67;;;6.20;;
7965;SDS011;4028;43.272;26.932;2024-03-06T01:11:12;10.63;;;6.67;;
7965;SDS011;4028;43.272;26.932;2024-03-06T01:13:39;14.23;;;7.57;;
7965;SDS011;4028;43.272;26.932;2024-03-06T01:16:05;11.17;;;7.07;;
7965;SDS011;4028;43.272;26.932;2024-03-06T01:18:31;11.67;;;7.57;;
7965;SDS011;4028;43.272;26.932;2024-03-06T01:20:57;8.17;;;6.40;;
7965;SDS011;4028;43.272;26.932;2024-03-06T01:23:23;8.97;;;6.80;;
7965;SDS011;4028;43.272;26.932;2024-03-06T01:25:48;14.03;;;7.53;;
7965;SDS011;4028;43.272;26.932;2024-03-06T01:28:14;9.13;;;6.93;;
7965;SDS011;4028;43.272;26.932;2024-03-06T01:30:39;13.40;;;7.40;;
7965;SDS011;4028;43.272;26.932;2024-03-06T01:33:05;12.33;;;7.53;;
7965;SDS011;4028;43.272;26.932;2024-03-06T01:35:31;14.07;;;7.90;;
7965;SDS011;4028;43.272;26.932;2024-03-06T01:37:56;10.27;;;8.23;;
7965;SDS011;4028;43.272;26.932;2024-03-06T01:40:23;12.97;;;7.40;;
7965;SDS011;4028;43.272;26.932;2024-03-06T01:42:49;14.50;;;7.13;;
7965;SDS011;4028;43.272;26.932;2024-03-06T01:45:15;10.77;;;7.27;;
7965;SDS011;4028;43.272;26.932;2024-03-06T01:47:40;12.63;;;7.63;;
7965;SDS011;4028;43.272;26.932;2024-03-06T01:50:06;10.83;;;7.73;;
7965;SDS011;4028;43.272;26.932;2024-03-06T01:52:34;11.50;;;7.47;;
7965;SDS011;4028;43.272;26.932;2024-03-06T01:55:05;10.87;;;7.27;;
7965;SDS011;4028;43.272;26.932;2024-03-06T01:57:31;9.63;;;6.90;;
7965;SDS011;4028;43.272;26.932;2024-03-06T01:59:59;12.37;;;6.60;;
7965;SDS011;4028;43.272;26.932;2024-03-06T02:02:26;8.53;;;6.60;;
7965;SDS011;4028;43.272;26.932;2024-03-06T02:04:53;9.43;;;7.30;;
7965;SDS011;4028;43.272;26.932;2024-03-06T02:07:19;18.67;;;8.30;;
7965;SDS011;4028;43.272;26.932;2024-03-06T02:09:45;13.00;;;8.57;;
7965;SDS011;4028;43.272;26.932;2024-03-06T02:12:11;14.57;;;9.90;;
7965;SDS011;4028;43.272;26.932;2024-03-06T02:14:37;14.73;;;9.77;;
7965;SDS011;4028;43.272;26.932;2024-03-06T02:17:03;11.45;;;8.70;;
7965;SDS011;4028;43.272;26.932;2024-03-06T02:19:42;10.80;;;8.47;;
7965;SDS011;4028;43.272;26.932;2024-03-06T02:22:08;18.97;;;10.13;;
7965;SDS011;4028;43.272;26.932;2024-03-06T02:24:35;15.23;;;9.57;;
7965;SDS011;4028;43.272;26.932;2024-03-06T02:27:02;11.40;;;8.93;;
7965;SDS011;4028;43.272;26.932;2024-03-06T02:29:33;19.10;;;9.67;;
7965;SDS011;4028;43.272;26.932;2024-03-06T02:31:59;15.03;;;9.50;;
7965;SDS011;4028;43.272;26.932;2024-03-06T02:34:27;14.10;;;9.47;;
7965;SDS011;4028;43.272;26.932;2024-03-06T02:36:54;15.03;;;9.80;;
7965;SDS011;4028;43.272;26.932;2024-03-06T02:39:19;13.77;;;9.87;;
7965;SDS011;4028;43.272;26.932;2024-03-06T02:41:46;16.77;;;9.83;;
7965;SDS011;4028;43.272;26.932;2024-03-06T02:44:12;13.33;;;9.60;;
7965;SDS011;4028;43.272;26.932;2024-03-06T02:46:37;13.60;;;10.37;;
7965;SDS011;4028;43.272;26.932;2024-03-06T02:49:03;15.43;;;9.80;;
7965;SDS011;4028;43.272;26.932;2024-03-06T02:51:30;15.77;;;10.30;;
7965;SDS011;4028;43.272;26.932;2024-03-06T02:53:56;17.10;;;10.70;;
7965;SDS011;4028;43.272;26.932;2024-03-06T02:56:22;16.27;;;10.30;;
7965;SDS011;4028;43.272;26.932;2024-03-06T02:58:47;15.23;;;9.97;;
7965;SDS011;4028;43.272;26.932;2024-03-06T03:01:15;14.37;;;10.63;;
7965;SDS011;4028;43.272;26.932;2024-03-06T03:03:41;16.57;;;10.53;;
7965;SDS011;4028;43.272;26.932;2024-03-06T03:06:08;17.63;;;10.07;;
7965;SDS011;4028;43.272;26.932;2024-03-06T03:08:34;17.37;;;11.37;;
7965;SDS011;4028;43.272;26.932;2024-03-06T03:10:59;18.70;;;11.97;;
7965;SDS011;4028;43.272;26.932;2024-03-06T03:13:25;17.77;;;11.70;;
7965;SDS011;4028;43.272;26.932;2024-03-06T03:15:50;16.33;;;11.07;;
7965;SDS011;4028;43.272;26.932;2024-03-06T03:18:16;14.67;;;11.13;;
7965;SDS011;4028;43.272;26.932;2024-03-06T03:20:42;17.87;;;11.30;;
7965;SDS011;4028;43.272;26.932;2024-03-06T03:23:07;20.03;;;12.53;;
7965;SDS011;4028;43.272;26.932;2024-03-06T03:25:37;16.03;;;11.80;;
7965;SDS011;4028;43.272;26.932;2024-03-06T03:28:02;22.23;;;12.93;;
7965;SDS011;4028;43.272;26.932;2024-03-06T03:30:28;22.87;;;13.13;;
7965;SDS011;4028;43.272;26.932;2024-03-06T03:32:54;21.27;;;12.63;;
7965;SDS011;4028;43.272;26.932;2024-03-06T03:35:19;18.03;;;13.30;;
7965;SDS011;4028;43.272;26.932;2024-03-06T03:37:50;18.90;;;12.25;;
7965;SDS011;4028;43.272;26.932;2024-03-06T03:40:18;17.23;;;12.73;;
7965;SDS011;4028;43.272;26.932;2024-03-06T03:42:44;18.27;;;13.03;;
7965;SDS011;4028;43.272;26.932;2024-03-06T03:45:10;14.97;;;12.20;;
7965;SDS011;4028;43.272;26.932;2024-03-06T03:47:35;22.43;;;11.77;;
7965;SDS011;4028;43.272;26.932;2024-03-06T03:50:01;16.70;;;12.37;;
7965;SDS011;4028;43.272;26.932;2024-03-06T03:52:26;20.53;;;12.20;;
7965;SDS011;4028;43.272;26.932;2024-03-06T03:54:52;18.57;;;12.13;;
7965;SDS011;4028;43.272;26.932;2024-03-06T03:57:17;18.60;;;12.40;;
7965;SDS011;4028;43.272;26.932;2024-03-06T03:59:43;19.93;;;11.50;;
7965;SDS011;4028;43.272;26.932;2024-03-06T04:02:08;17.90;;;11.07;;
7965;SDS011;4028;43.272;26.932;2024-03-06T04:04:34;18.43;;;12.20;;
7965;SDS011;4028;43.272;26.932;2024-03-06T04:07:00;16.57;;;12.40;;
7965;SDS011;4028;43.272;26.932;2024-03-06T04:09:27;21.63;;;11.13;;
7965;SDS011;4028;43.272;26.932;2024-03-06T04:11:53;18.43;;;12.20;;
7965;SDS011;4028;43.272;26.932;2024-03-06T04:14:18;15.67;;;11.53;;
7965;SDS011;4028;43.272;26.932;2024-03-06T04:16:46;18.60;;;11.77;;
7965;SDS011;4028;43.272;26.932;2024-03-06T04:19:12;17.50;;;11.00;;
7965;SDS011;4028;43.272;26.932;2024-03-06T04:21:41;15.67;;;10.57;;
7965;SDS011;4028;43.272;26.932;2024-03-06T04:24:07;18.93;;;11.93;;
7965;SDS011;4028;43.272;26.932;2024-03-06T04:26:33;19.43;;;12.27;;
7965;SDS011;4028;43.272;26.932;2024-03-06T04:28:58;20.07;;;12.10;;
7965;SDS011;4028;43.272;26.932;2024-03-06T04:31:24;23.03;;;12.50;;
7965;SDS011;4028;43.272;26.932;2024-03-06T04:33:50;18.90;;;11.80;;
7965;SDS011;4028;43.272;26.932;2024-03-06T04:36:15;18.60;;;12.20;;
7965;SDS011;4028;43.272;26.932;2024-03-06T04:38:41;17.40;;;11.23;;
7965;SDS011;4028;43.272;26.932;2024-03-06T04:41:07;25.63;;;12.17;;
7965;SDS011;4028;43.272;26.932;2024-03-06T04:43:33;20.87;;;12.10;;
7965;SDS011;4028;43.272;26.932;2024-03-06T04:45:59;19.60;;;12.37;;
7965;SDS011;4028;43.272;26.932;2024-03-06T04:48:24;19.53;;;12.57;;
7965;SDS011;4028;43.272;26.932;2024-03-06T04:50:50;18.70;;;11.73;;
7965;SDS011;4028;43.272;26.932;2024-03-06T04:53:16;21.17;;;13.20;;
7965;SDS011;4028;43.272;26.932;2024-03-06T04:55:41;23.30;;;14.10;;
7965;SDS011;4028;43.272;26.932;2024-03-06T04:58:07;19.13;;;12.40;;
7965;SDS011;4028;43.272;26.932;2024-03-06T05:00:33;16.83;;;12.33;;
7965;SDS011;4028;43.272;26.932;2024-03-06T05:02:59;18.90;;;12.80;;
7965;SDS011;4028;43.272;26.932;2024-03-06T05:05:25;24.53;;;14.17;;
7965;SDS011;4028;43.272;26.932;2024-03-06T05:07:50;20.00;;;12.23;;
7965;SDS011;4028;43.272;26.932;2024-03-06T05:10:16;22.83;;;12.73;;
7965;SDS011;4028;43.272;26.932;2024-03-06T05:12:42;19.80;;;14.00;;
7965;SDS011;4028;43.272;26.932;2024-03-06T05:15:08;20.00;;;13.77;;
7965;SDS011;4028;43.272;26.932;2024-03-06T05:17:34;21.13;;;14.77;;
7965;SDS011;4028;43.272;26.932;2024-03-06T05:19:59;25.80;;;14.43;;
7965;SDS011;4028;43.272;26.932;2024-03-06T05:22:25;25.43;;;15.60;;
7965;SDS011;4028;43.272;26.932;2024-03-06T05:24:51;19.77;;;15.43;;
7965;SDS011;4028;43.272;26.932;2024-03-06T05:27:17;25.63;;;16.23;;
7965;SDS011;4028;43.272;26.932;2024-03-06T05:29:43;22.10;;;15.10;;
7965;SDS011;4028;43.272;26.932;2024-03-06T05:32:09;21.77;;;15.57;;
7965;SDS011;4028;43.272;26.932;2024-03-06T05:34:35;26.40;;;15.40;;
7965;SDS011;4028;43.272;26.932;2024-03-06T05:37:01;27.17;;;16.40;;
7965;SDS011;4028;43.272;26.932;2024-03-06T05:39:29;25.33;;;16.13;;
7965;SDS011;4028;43.272;26.932;2024-03-06T05:41:55;27.03;;;16.40;;
7965;SDS011;4028;43.272;26.932;2024-03-06T05:44:21;26.10;;;16.30;;
7965;SDS011;4028;43.272;26.932;2024-03-06T05:46:46;30.13;;;16.53;;
7965;SDS011;4028;43.272;26.932;2024-03-06T05:49:12;25.93;;;15.80;;
7965;SDS011;4028;43.272;26.932;2024-03-06T05:51:39;25.07;;;16.33;;
7965;SDS011;4028;43.272;26.932;2024-03-06T05:54:05;24.93;;;16.13;;
7965;SDS011;4028;43.272;26.932;2024-03-06T05:56:33;26.60;;;15.13;;
7965;SDS011;4028;43.272;26.932;2024-03-06T05:58:59;26.93;;;15.37;;
7965;SDS011;4028;43.272;26.932;2024-03-06T06:01:29;26.53;;;17.27;;
7965;SDS011;4028;43.272;26.932;2024-03-06T06:03:56;23.85;;;16.10;;
7965;SDS011;4028;43.272;26.932;2024-03-06T06:06:21;21.93;;;16.13;;
7965;SDS011;4028;43.272;26.932;2024-03-06T06:08:47;26.27;;;16.57;;
7965;SDS011;4028;43.272;26.932;2024-03-06T06:11:13;24.45;;;15.20;;
7965;SDS011;4028;43.272;26.932;2024-03-06T06:13:38;20.43;;;13.97;;
7965;SDS011;4028;43.272;26.932;2024-03-06T06:16:07;24.00;;;16.53;;
7965;SDS011;4028;43.272;26.932;2024-03-06T06:18:32;21.83;;;15.80;;
7965;SDS011;4028;43.272;26.932;2024-03-06T06:20:58;22.63;;;15.03;;
7965;SDS011;4028;43.272;26.932;2024-03-06T06:23:24;27.00;;;15.45;;
7965;SDS011;4028;43.272;26.932;2024-03-06T06:25:50;22.27;;;14.33;;
7965;SDS011;4028;43.272;26.932;2024-03-06T06:28:16;22.90;;;14.53;;
7965;SDS011;4028;43.272;26.932;2024-03-06T06:30:41;21.43;;;15.73;;
7965;SDS011;4028;43.272;26.932;2024-03-06T06:33:07;34.20;;;18.30;;
7965;SDS011;4028;43.272;26.932;2024-03-06T06:35:33;29.40;;;18.00;;
7965;SDS011;4028;43.272;26.932;2024-03-06T06:38:02;28.93;;;18.17;;
7965;SDS011;4028;43.272;26.932;2024-03-06T06:40:28;27.80;;;16.35;;
7965;SDS011;4028;43.272;26.932;2024-03-06T06:42:53;25.83;;;17.37;;
7965;SDS011;4028;43.272;26.932;2024-03-06T06:45:19;24.70;;;15.87;;
7965;SDS011;4028;43.272;26.932;2024-03-06T06:47:46;22.50;;;15.80;;
7965;SDS011;4028;43.272;26.932;2024-03-06T06:50:12;22.47;;;15.23;;
7965;SDS011;4028;43.272;26.932;2024-03-06T06:52:38;22.00;;;16.57;;
7965;SDS011;4028;43.272;26.932;2024-03-06T06:55:04;22.70;;;16.23;;
7965;SDS011;4028;43.272;26.932;2024-03-06T06:57:30;25.77;;;17.60;;
7965;SDS011;4028;43.272;26.932;2024-03-06T06:59:56;28.10;;;19.10;;
7965;SDS011;4028;43.272;26.932;2024-03-06T07:02:21;20.67;;;15.30;;
7965;SDS011;4028;43.272;26.932;2024-03-06T07:04:47;26.00;;;16.03;;
7965;SDS011;4028;43.272;26.932;2024-03-06T07:07:13;19.67;;;15.63;;
7965;SDS011;4028;43.272;26.932;2024-03-06T07:09:39;22.43;;;15.17;;
7965;SDS011;4028;43.272;26.932;2024-03-06T07:12:05;22.47;;;16.23;;
7965;SDS011;4028;43.272;26.932;2024-03-06T07:14:30;25.10;;;15.10;;
7965;SDS011;4028;43.272;26.932;2024-03-06T07:16:56;26.70;;;16.33;;
7965;SDS011;4028;43.272;26.932;2024-03-06T07:19:21;21.60;;;15.93;;
7965;SDS011;4028;43.272;26.932;2024-03-06T07:21:47;25.30;;;15.53;;
7965;SDS011;4028;43.272;26.932;2024-03-06T07:24:13;26.63;;;16.40;;
7965;SDS011;4028;43.272;26.932;2024-03-06T07:26:38;21.27;;;15.67;;
7965;SDS011;4028;43.272;26.932;2024-03-06T07:29:04;24.90;;;15.77;;
7965;SDS011;4028;43.272;26.932;2024-03-06T07:31:31;23.23;;;16.03;;
7965;SDS011;4028;43.272;26.932;2024-03-06T07:33:57;22.47;;;15.53;;
7965;SDS011;4028;43.272;26.932;2024-03-06T07:36:22;24.37;;;15.50;;
7965;SDS011;4028;43.272;26.932;2024-03-06T07:38:48;25.43;;;15.53;;
7965;SDS011;4028;43.272;26.932;2024-03-06T07:41:13;21.20;;;15.10;;
7965;SDS011;4028;43.272;26.932;2024-03-06T07:43:39;24.50;;;16.07;;
7965;SDS011;4028;43.272;26.932;2024-03-06T07:46:04;22.27;;;15.63;;
7965;SDS011;4028;43.272;26.932;2024-03-06T07:48:38;24.63;;;16.20;;
7965;SDS011;4028;43.272;26.932;2024-03-06T07:51:07;22.07;;;14.87;;
7965;SDS011;4028;43.272;26.932;2024-03-06T07:53:33;23.67;;;15.93;;
7965;SDS011;4028;43.272;26.932;2024-03-06T07:55:58;20.03;;;14.33;;
7965;SDS011;4028;43.272;26.932;2024-03-06T07:58:24;22.67;;;14.87;;
7965;SDS011;4028;43.272;26.932;2024-03-06T08:00:49;21.67;;;14.67;;
7965;SDS011;4028;43.272;26.932;2024-03-06T08:03:14;23.93;;;14.63;;
7965;SDS011;4028;43.272;26.932;2024-03-06T08:05:40;18.90;;;13.93;;
7965;SDS011;4028;43.272;26.932;2024-03-06T08:08:06;22.27;;;14.60;;
7965;SDS011;4028;43.272;26.932;2024-03-06T08:10:31;23.50;;;14.00;;
7965;SDS011;4028;43.272;26.932;2024-03-06T08:12:58;18.33;;;14.10;;
7965;SDS011;4028;43.272;26.932;2024-03-06T08:15:24;19.60;;;14.30;;
7965;SDS011;4028;43.272;26.932;2024-03-06T08:17:49;20.27;;;13.90;;
7965;SDS011;4028;43.272;26.932;2024-03-06T08:20:16;22.37;;;14.17;;
7965;SDS011;4028;43.272;26.932;2024-03-06T08:22:42;17.63;;;14.07;;
7965;SDS011;4028;43.272;26.932;2024-03-06T08:25:08;18.37;;;13.97;;
7965;SDS011;4028;43.272;26.932;2024-03-06T08:27:36;21.63;;;13.90;;
7965;SDS011;4028;43.272;26.932;2024-03-06T08:30:02;22.80;;;14.60;;
7965;SDS011;4028;43.272;26.932;2024-03-06T08:32:30;21.43;;;14.40;;
7965;SDS011;4028;43.272;26.932;2024-03-06T08:35:03;18.83;;;15.00;;
7965;SDS011;4028;43.272;26.932;2024-03-06T08:37:32;19.77;;;14.53;;
7965;SDS011;4028;43.272;26.932;2024-03-06T08:39:59;18.80;;;13.83;;
7965;SDS011;4028;43.272;26.932;2024-03-06T08:42:25;17.77;;;12.80;;
7965;SDS011;4028;43.272;26.932;2024-03-06T08:44:50;15.27;;;12.37;;
7965;SDS011;4028;43.272;26.932;2024-03-06T08:47:16;21.40;;;13.70;;
7965;SDS011;4028;43.272;26.932;2024-03-06T08:49:41;18.50;;;12.47;;
7965;SDS011;4028;43.272;26.932;2024-03-06T08:52:07;18.47;;;12.60;;
7965;SDS011;4028;43.272;26.932;2024-03-06T08:54:34;18.07;;;13.50;;
7965;SDS011;4028;43.272;26.932;2024-03-06T08:57:00;23.93;;;14.13;;
7965;SDS011;4028;43.272;26.932;2024-03-06T08:59:27;21.93;;;14.00;;
7965;SDS011;4028;43.272;26.932;2024-03-06T09:01:54;18.63;;;13.60;;
7965;SDS011;4028;43.272;26.932;2024-03-06T09:04:20;21.90;;;14.43;;
7965;SDS011;4028;43.272;26.932;2024-03-06T09:06:46;19.57;;;13.83;;
7965;SDS011;4028;43.272;26.932;2024-03-06T09:09:12;18.63;;;13.47;;
7965;SDS011;4028;43.272;26.932;2024-03-06T09:11:42;17.43;;;12.63;;
7965;SDS011;4028;43.272;26.932;2024-03-06T09:14:09;17.63;;;13.13;;
7965;SDS011;4028;43.272;26.932;2024-03-06T09:16:35;20.33;;;13.33;;
7965;SDS011;4028;43.272;26.932;2024-03-06T09:19:00;22.87;;;13.20;;
7965;SDS011;4028;43.272;26.932;2024-03-06T09:21:27;16.67;;;13.40;;
7965;SDS011;4028;43.272;26.932;2024-03-06T09:23:53;18.10;;;13.33;;
7965;SDS011;4028;43.272;26.932;2024-03-06T09:26:18;21.07;;;14.00;;
7965;SDS011;4028;43.272;26.932;2024-03-06T09:28:45;19.07;;;12.60;;
7965;SDS011;4028;43.272;26.932;2024-03-06T09:31:11;17.60;;;12.33;;
7965;SDS011;4028;43.272;26.932;2024-03-06T09:33:38;21.63;;;13.87;;
7965;SDS011;4028;43.272;26.932;2024-03-06T09:36:04;15.90;;;13.17;;
7965;SDS011;4028;43.272;26.932;2024-03-06T09:38:30;20.83;;;14.77;;
7965;SDS011;4028;43.272;26.932;2024-03-06T09:40:56;19.47;;;13.27;;
7965;SDS011;4028;43.272;26.932;2024-03-06T09:43:22;19.73;;;13.50;;
7965;SDS011;4028;43.272;26.932;2024-03-06T09:45:48;19.73;;;13.57;;
7965;SDS011;4028;43.272;26.932;2024-03-06T09:48:16;16.90;;;13.17;;
7965;SDS011;4028;43.272;26.932;2024-03-06T09:50:46;18.77;;;12.97;;
7965;SDS011;4028;43.272;26.932;2024-03-06T09:53:15;16.60;;;12.93;;
7965;SDS011;4028;43.272;26.932;2024-03-06T09:55:42;18.30;;;14.10;;
7965;SDS011;4028;43.272;26.932;2024-03-06T09:58:08;19.73;;;13.47;;
7965;SDS011;4028;43.272;26.932;2024-03-06T10:00:34;17.60;;;12.80;;
7965;SDS011;4028;43.272;26.932;2024-03-06T10:03:01;20.40;;;13.60;;
7965;SDS011;4028;43.272;26.932;2024-03-06T10:05:30;16.93;;;13.03;;
7965;SDS011;4028;43.272;26.932;2024-03-06T10:08:00;17.43;;;12.67;;
7965;SDS011;4028;43.272;26.932;2024-03-06T10:10:26;18.40;;;13.80;;
7965;SDS011;4028;43.272;26.932;2024-03-06T10:12:52;17.53;;;13.30;;
7965;SDS011;4028;43.272;26.932;2024-03-06T10:15:18;20.97;;;13.40;;
7965;SDS011;4028;43.272;26.932;2024-03-06T10:17:44;19.03;;;12.70;;
7965;SDS011;4028;43.272;26.932;2024-03-06T10:20:20;20.90;;;12.70;;
7965;SDS011;4028;43.272;26.932;2024-03-06T10:22:50;16.57;;;12.20;;
7965;SDS011;4028;43.272;26.932;2024-03-06T10:25:20;17.90;;;12.27;;
7965;SDS011;4028;43.272;26.932;2024-03-06T10:28:01;16.37;;;12.30;;
7965;SDS011;4028;43.272;26.932;2024-03-06T10:30:34;13.97;;;11.67;;
7965;SDS011;4028;43.272;26.932;2024-03-06T10:33:04;21.43;;;12.10;;
7965;SDS011;4028;43.272;26.932;2024-03-06T10:35:33;16.00;;;11.70;;
7965;SDS011;4028;43.272;26.932;2024-03-06T10:38:03;18.20;;;12.60;;
7965;SDS011;4028;43.272;26.932;2024-03-06T10:40:33;13.67;;;10.53;;
7965;SDS011;4028;43.272;26.932;2024-03-06T10:43:00;16.87;;;11.40;;
7965;SDS011;4028;43.272;26.932;2024-03-06T10:45:33;19.00;;;12.07;;
7965;SDS011;4028;43.272;26.932;2024-03-06T10:48:21;15.97;;;11.80;;
7965;SDS011;4028;43.272;26.932;2024-03-06T10:50:48;16.23;;;10.80;;
7965;SDS011;4028;43.272;26.932;2024-03-06T10:53:15;17.60;;;12.17;;
7965;SDS011;4028;43.272;26.932;2024-03-06T10:55:45;15.47;;;11.43;;
7965;SDS011;4028;43.272;26.932;2024-03-06T10:58:12;18.23;;;11.20;;
7965;SDS011;4028;43.272;26.932;2024-03-06T11:00:44;19.20;;;11.93;;
7965;SDS011;4028;43.272;26.932;2024-03-06T11:03:14;15.27;;;11.53;;
7965;SDS011;4028;43.272;26.932;2024-03-06T11:05:45;14.63;;;12.27;;
7965;SDS011;4028;43.272;26.932;2024-03-06T11:08:15;19.80;;;11.67;;
7965;SDS011;4028;43.272;26.932;2024-03-06T11:10:43;19.73;;;11.40;;
7965;SDS011;4028;43.272;26.932;2024-03-06T11:15:51;15.83;;;11.83;;
7965;SDS011;4028;43.272;26.932;2024-03-06T11:20:58;16.60;;;11.33;;
7965;SDS011;4028;43.272;26.932;2024-03-06T11:23:26;13.67;;;11.53;;
7965;SDS011;4028;43.272;26.932;2024-03-06T11:28:18;15.53;;;11.63;;
7965;SDS011;4028;43.272;26.932;2024-03-06T11:30:57;15.00;;;11.93;;
7965;SDS011;4028;43.272;26.932;2024-03-06T11:33:26;18.20;;;12.07;;
7965;SDS011;4028;43.272;26.932;2024-03-06T11:38:51;14.33;;;11.30;;
7965;SDS011;4028;43.272;26.932;2024-03-06T11:41:27;18.13;;;11.70;;
7965;SDS011;4028;43.272;26.932;2024-03-06T11:43:55;18.00;;;12.00;;
7965;SDS011;4028;43.272;26.932;2024-03-06T11:49:19;15.43;;;11.47;;
7965;SDS011;4028;43.272;26.932;2024-03-06T11:51:51;15.60;;;12.23;;
7965;SDS011;4028;43.272;26.932;2024-03-06T11:54:18;23.10;;;12.50;;
7965;SDS011;4028;43.272;26.932;2024-03-06T11:56:48;19.07;;;12.73;;
7965;SDS011;4028;43.272;26.932;2024-03-06T11:59:39;15.67;;;11.47;;
7965;SDS011;4028;43.272;26.932;2024-03-06T12:02:05;21.33;;;11.93;;
7965;SDS011;4028;43.272;26.932;2024-03-06T12:04:31;15.10;;;11.10;;
7965;SDS011;4028;43.272;26.932;2024-03-06T12:07:02;19.20;;;13.03;;
7965;SDS011;4028;43.272;26.932;2024-03-06T12:09:31;15.90;;;11.37;;
7965;SDS011;4028;43.272;26.932;2024-03-06T12:11:58;15.63;;;11.10;;
7965;SDS011;4028;43.272;26.932;2024-03-06T12:14:23;20.47;;;11.23;;
7965;SDS011;4028;43.272;26.932;2024-03-06T12:16:59;15.83;;;11.57;;
7965;SDS011;4028;43.272;26.932;2024-03-06T12:19:31;15.63;;;10.93;;
7965;SDS011;4028;43.272;26.932;2024-03-06T12:22:01;19.40;;;11.27;;
7965;SDS011;4028;43.272;26.932;2024-03-06T12:24:29;14.77;;;10.60;;
7965;SDS011;4028;43.272;26.932;2024-03-06T12:27:01;18.47;;;10.67;;
7965;SDS011;4028;43.272;26.932;2024-03-06T12:29:29;13.97;;;11.00;;
7965;SDS011;4028;43.272;26.932;2024-03-06T12:31:59;13.63;;;10.93;;
7965;SDS011;4028;43.272;26.932;2024-03-06T12:34:25;19.27;;;10.80;;
7965;SDS011;4028;43.272;26.932;2024-03-06T12:36:50;13.10;;;10.43;;
7965;SDS011;4028;43.272;26.932;2024-03-06T12:39:16;17.27;;;11.23;;
7965;SDS011;4028;43.272;26.932;2024-03-06T12:41:46;17.87;;;10.77;;
7965;SDS011;4028;43.272;26.932;2024-03-06T12:44:12;13.00;;;10.50;;
7965;SDS011;4028;43.272;26.932;2024-03-06T12:46:38;16.60;;;11.23;;
7965;SDS011;4028;43.272;26.932;2024-03-06T12:49:03;17.77;;;11.20;;
7965;SDS011;4028;43.272;26.932;2024-03-06T12:51:29;13.70;;;9.70;;
7965;SDS011;4028;43.272;26.932;2024-03-06T12:53:54;17.00;;;10.90;;
7965;SDS011;4028;43.272;26.932;2024-03-06T12:56:20;13.90;;;10.40;;
7965;SDS011;4028;43.272;26.932;2024-03-06T12:58:46;14.10;;;10.17;;
7965;SDS011;4028;43.272;26.932;2024-03-06T13:01:11;14.50;;;10.27;;
7965;SDS011;4028;43.272;26.932;2024-03-06T13:03:37;13.50;;;10.20;;
7965;SDS011;4028;43.272;26.932;2024-03-06T13:06:03;19.47;;;10.07;;
7965;SDS011;4028;43.272;26.932;2024-03-06T13:08:29;15.03;;;10.70;;
7965;SDS011;4028;43.272;26.932;2024-03-06T13:10:58;15.20;;;10.23;;
7965;SDS011;4028;43.272;26.932;2024-03-06T13:13:23;11.63;;;9.57;;
7965;SDS011;4028;43.272;26.932;2024-03-06T13:15:50;16.93;;;10.60;;
7965;SDS011;4028;43.272;26.932;2024-03-06T13:18:18;13.57;;;9.30;;
7965;SDS011;4028;43.272;26.932;2024-03-06T13:20:44;14.17;;;10.17;;
7965;SDS011;4028;43.272;26.932;2024-03-06T13:23:10;14.10;;;9.97;;
7965;SDS011;4028;43.272;26.932;2024-03-06T13:25:36;13.40;;;10.53;;
7965;SDS011;4028;43.272;26.932;2024-03-06T13:28:01;12.27;;;9.53;;
7965;SDS011;4028;43.272;26.932;2024-03-06T13:30:28;18.60;;;10.50;;
7965;SDS011;4028;43.272;26.932;2024-03-06T13:32:53;16.83;;;10.57;;
7965;SDS011;4028;43.272;26.932;2024-03-06T13:35:19;12.97;;;10.57;;
7965;SDS011;4028;43.272;26.932;2024-03-06T13:37:45;12.33;;;10.20;;
7965;SDS011;4028;43.272;26.932;2024-03-06T13:40:11;17.20;;;10.47;;
7965;SDS011;4028;43.272;26.932;2024-03-06T13:42:38;15.93;;;11.03;;
7965;SDS011;4028;43.272;26.932;2024-03-06T13:45:06;13.23;;;9.83;;
7965;SDS011;4028;43.272;26.932;2024-03-06T13:47:38;12.57;;;10.00;;
7965;SDS011;4028;43.272;26.932;2024-03-06T13:50:10;15.77;;;10.73;;
7965;SDS011;4028;43.272;26.932;2024-03-06T13:52:37;14.67;;;11.20;;
7965;SDS011;4028;43.272;26.932;2024-03-06T13:55:03;13.33;;;9.77;;
7965;SDS011;4028;43.272;26.932;2024-03-06T13:57:33;16.83;;;10.90;;
7965;SDS011;4028;43.272;26.932;2024-03-06T14:00:03;13.77;;;10.23;;
7965;SDS011;4028;43.272;26.932;2024-03-06T14:02:30;14.07;;;10.30;;
7965;SDS011;4028;43.272;26.932;2024-03-06T14:04:56;13.50;;;10.03;;
7965;SDS011;4028;43.272;26.932;2024-03-06T14:07:22;15.93;;;10.03;;
7965;SDS011;4028;43.272;26.932;2024-03-06T14:09:48;12.40;;;10.67;;
7965;SDS011;4028;43.272;26.932;2024-03-06T14:12:17;16.80;;;11.17;;
7965;SDS011;4028;43.272;26.932;2024-03-06T14:14:43;17.47;;;11.23;;
7965;SDS011;4028;43.272;26.932;2024-03-06T14:17:10;13.13;;;10.23;;
7965;SDS011;4028;43.272;26.932;2024-03-06T14:19:36;14.47;;;10.53;;
7965;SDS011;4028;43.272;26.932;2024-03-06T14:22:01;13.63;;;10.50;;
7965;SDS011;4028;43.272;26.932;2024-03-06T14:24:27;15.67;;;10.17;;
7965;SDS011;4028;43.272;26.932;2024-03-06T14:26:52;14.43;;;10.97;;
7965;SDS011;4028;43.272;26.932;2024-03-06T14:29:18;13.13;;;10.47;;
7965;SDS011;4028;43.272;26.932;2024-03-06T14:31:43;14.43;;;11.50;;
7965;SDS011;4028;43.272;26.932;2024-03-06T14:34:09;20.17;;;13.70;;
7965;SDS011;4028;43.272;26.932;2024-03-06T14:36:35;17.20;;;11.30;;
7965;SDS011;4028;43.272;26.932;2024-03-06T14:39:01;11.23;;;9.93;;
7965;SDS011;4028;43.272;26.932;2024-03-06T14:41:27;13.37;;;9.80;;
7965;SDS011;4028;43.272;26.932;2024-03-06T14:43:52;17.60;;;10.03;;
7965;SDS011;4028;43.272;26.932;2024-03-06T14:46:19;13.77;;;10.30;;
7965;SDS011;4028;43.272;26.932;2024-03-06T14:48:44;16.80;;;10.97;;